Las Varillas, Argentina
Current Conditions -  °F | °C
As of 3:00 PM on Saturday 25 Oct 2014 (Local Time) from SACO Reporting Station
Scattered Clouds Scattered Clouds  
Wind Chill: 33°   Ceiling: Unl
Heat Index: 33°   Visibility: 6mi
Dew Point: 13°   Wind: 20mph
Humidity: 29%   Direction: 50°NE
Pressure: 29.88"   Gusts: NA
Location:  31.87°S, 62.72°W
Report Text: SACO 251800Z 05017KT 9999 FEW025 SCT10033/13 Q1012
Loading
Personal Weather Stations






























Interactive Weather Map
Tropical Storm Tracking
New forecast layout! Learn more

10-Day Weather Forecast

Advertisements
Track Severe Weather on mobile